sensor_id;sensor_type;location;lat;lon;timestamp;P1;durP1;ratioP1;P2;durP2;ratioP2
78985;SDS011;68384;55.750;48.746;2023-08-08T00:00:17;5.78;;;2.92;;
78985;SDS011;68384;55.750;48.746;2023-08-08T00:01:21;6.28;;;3.28;;
78985;SDS011;68384;55.750;48.746;2023-08-08T00:02:24;5.28;;;3.22;;
78985;SDS011;68384;55.750;48.746;2023-08-08T00:03:29;4.55;;;3.53;;
78985;SDS011;68384;55.750;48.746;2023-08-08T00:04:32;4.30;;;3.08;;
78985;SDS011;68384;55.750;48.746;2023-08-08T00:05:36;5.35;;;3.17;;
78985;SDS011;68384;55.750;48.746;2023-08-08T00:06:39;4.78;;;3.22;;
78985;SDS011;68384;55.750;48.746;2023-08-08T00:07:42;6.28;;;3.25;;
78985;SDS011;68384;55.750;48.746;2023-08-08T00:08:45;4.22;;;3.30;;
78985;SDS011;68384;55.750;48.746;2023-08-08T00:09:49;4.10;;;3.50;;
78985;SDS011;68384;55.750;48.746;2023-08-08T00:10:53;4.40;;;3.53;;
78985;SDS011;68384;55.750;48.746;2023-08-08T00:11:58;5.10;;;3.63;;
78985;SDS011;68384;55.750;48.746;2023-08-08T00:13:01;5.00;;;3.33;;
78985;SDS011;68384;55.750;48.746;2023-08-08T00:14:05;4.40;;;3.25;;
78985;SDS011;68384;55.750;48.746;2023-08-08T00:15:08;3.30;;;3.00;;
78985;SDS011;68384;55.750;48.746;2023-08-08T00:16:12;4.47;;;3.13;;
78985;SDS011;68384;55.750;48.746;2023-08-08T00:17:15;4.80;;;3.47;;
78985;SDS011;68384;55.750;48.746;2023-08-08T00:18:19;5.85;;;3.95;;
78985;SDS011;68384;55.750;48.746;2023-08-08T00:19:22;4.63;;;3.25;;
78985;SDS011;68384;55.750;48.746;2023-08-08T00:20:26;4.32;;;3.25;;
78985;SDS011;68384;55.750;48.746;2023-08-08T00:21:29;7.78;;;3.72;;
78985;SDS011;68384;55.750;48.746;2023-08-08T00:22:33;3.53;;;2.90;;
78985;SDS011;68384;55.750;48.746;2023-08-08T00:23:35;6.50;;;3.60;;
78985;SDS011;68384;55.750;48.746;2023-08-08T00:24:39;4.55;;;3.63;;
78985;SDS011;68384;55.750;48.746;2023-08-08T00:25:42;3.78;;;3.38;;
78985;SDS011;68384;55.750;48.746;2023-08-08T00:26:53;4.78;;;3.50;;
78985;SDS011;68384;55.750;48.746;2023-08-08T00:27:55;4.22;;;3.05;;
78985;SDS011;68384;55.750;48.746;2023-08-08T00:28:59;3.80;;;3.33;;
78985;SDS011;68384;55.750;48.746;2023-08-08T00:30:02;3.85;;;3.35;;
78985;SDS011;68384;55.750;48.746;2023-08-08T00:31:07;4.45;;;3.50;;
78985;SDS011;68384;55.750;48.746;2023-08-08T00:32:12;5.35;;;3.50;;
78985;SDS011;68384;55.750;48.746;2023-08-08T00:33:16;4.40;;;3.28;;
78985;SDS011;68384;55.750;48.746;2023-08-08T00:34:19;4.55;;;3.25;;
78985;SDS011;68384;55.750;48.746;2023-08-08T00:35:23;5.03;;;3.10;;
78985;SDS011;68384;55.750;48.746;2023-08-08T00:36:26;4.45;;;3.58;;
78985;SDS011;68384;55.750;48.746;2023-08-08T00:37:30;4.05;;;3.30;;
78985;SDS011;68384;55.750;48.746;2023-08-08T00:38:33;6.40;;;3.70;;
78985;SDS011;68384;55.750;48.746;2023-08-08T00:39:36;4.35;;;3.55;;
78985;SDS011;68384;55.750;48.746;2023-08-08T00:40:40;3.60;;;3.00;;
78985;SDS011;68384;55.750;48.746;2023-08-08T00:41:43;4.43;;;3.58;;
78985;SDS011;68384;55.750;48.746;2023-08-08T00:42:48;8.45;;;3.40;;
78985;SDS011;68384;55.750;48.746;2023-08-08T00:43:51;5.72;;;3.40;;
78985;SDS011;68384;55.750;48.746;2023-08-08T00:44:54;5.60;;;3.40;;
78985;SDS011;68384;55.750;48.746;2023-08-08T00:46:07;4.57;;;3.40;;
78985;SDS011;68384;55.750;48.746;2023-08-08T00:47:11;4.95;;;3.45;;
78985;SDS011;68384;55.750;48.746;2023-08-08T00:48:14;4.90;;;3.70;;
78985;SDS011;68384;55.750;48.746;2023-08-08T00:49:19;4.05;;;3.50;;
78985;SDS011;68384;55.750;48.746;2023-08-08T00:50:22;4.57;;;3.20;;
78985;SDS011;68384;55.750;48.746;2023-08-08T00:51:26;4.40;;;3.65;;
78985;SDS011;68384;55.750;48.746;2023-08-08T00:52:29;4.85;;;3.25;;
78985;SDS011;68384;55.750;48.746;2023-08-08T00:53:33;4.75;;;3.55;;
78985;SDS011;68384;55.750;48.746;2023-08-08T00:54:36;3.90;;;3.50;;
78985;SDS011;68384;55.750;48.746;2023-08-08T00:55:40;4.55;;;3.90;;
78985;SDS011;68384;55.750;48.746;2023-08-08T00:56:43;4.00;;;3.53;;
78985;SDS011;68384;55.750;48.746;2023-08-08T00:57:48;4.22;;;3.17;;
78985;SDS011;68384;55.750;48.746;2023-08-08T00:58:51;3.78;;;3.40;;
78985;SDS011;68384;55.750;48.746;2023-08-08T00:59:55;7.32;;;3.63;;
78985;SDS011;68384;55.750;48.746;2023-08-08T01:00:58;4.72;;;3.65;;
78985;SDS011;68384;55.750;48.746;2023-08-08T01:02:02;3.50;;;3.08;;
78985;SDS011;68384;55.750;48.746;2023-08-08T01:03:05;4.03;;;3.63;;
78985;SDS011;68384;55.750;48.746;2023-08-08T01:04:10;3.78;;;3.38;;
78985;SDS011;68384;55.750;48.746;2023-08-08T01:05:15;4.88;;;3.42;;
78985;SDS011;68384;55.750;48.746;2023-08-08T01:06:21;5.30;;;3.10;;
78985;SDS011;68384;55.750;48.746;2023-08-08T01:07:33;4.05;;;3.28;;
78985;SDS011;68384;55.750;48.746;2023-08-08T01:08:43;5.15;;;3.50;;
78985;SDS011;68384;55.750;48.746;2023-08-08T01:09:52;5.35;;;3.42;;
78985;SDS011;68384;55.750;48.746;2023-08-08T01:11:05;5.38;;;3.30;;
78985;SDS011;68384;55.750;48.746;2023-08-08T01:12:08;5.25;;;3.53;;
78985;SDS011;68384;55.750;48.746;2023-08-08T01:13:19;6.55;;;3.47;;
78985;SDS011;68384;55.750;48.746;2023-08-08T01:14:24;5.03;;;3.42;;
78985;SDS011;68384;55.750;48.746;2023-08-08T01:15:31;6.47;;;3.40;;
78985;SDS011;68384;55.750;48.746;2023-08-08T01:16:38;5.13;;;3.35;;
78985;SDS011;68384;55.750;48.746;2023-08-08T01:17:43;4.97;;;3.55;;
78985;SDS011;68384;55.750;48.746;2023-08-08T01:18:48;5.40;;;3.70;;
78985;SDS011;68384;55.750;48.746;2023-08-08T01:19:54;4.88;;;3.60;;
78985;SDS011;68384;55.750;48.746;2023-08-08T01:20:57;4.63;;;3.60;;
78985;SDS011;68384;55.750;48.746;2023-08-08T01:22:02;6.18;;;3.20;;
78985;SDS011;68384;55.750;48.746;2023-08-08T01:23:09;3.78;;;3.45;;
78985;SDS011;68384;55.750;48.746;2023-08-08T01:24:20;4.80;;;3.58;;
78985;SDS011;68384;55.750;48.746;2023-08-08T01:25:23;4.78;;;3.30;;
78985;SDS011;68384;55.750;48.746;2023-08-08T01:26:28;4.22;;;3.50;;
78985;SDS011;68384;55.750;48.746;2023-08-08T01:27:31;6.05;;;3.75;;
78985;SDS011;68384;55.750;48.746;2023-08-08T01:28:35;4.47;;;3.47;;
78985;SDS011;68384;55.750;48.746;2023-08-08T01:29:38;5.72;;;3.60;;
78985;SDS011;68384;55.750;48.746;2023-08-08T01:30:43;7.72;;;3.95;;
78985;SDS011;68384;55.750;48.746;2023-08-08T01:31:46;4.93;;;3.60;;
78985;SDS011;68384;55.750;48.746;2023-08-08T01:32:50;4.32;;;3.40;;
78985;SDS011;68384;55.750;48.746;2023-08-08T01:33:53;3.97;;;3.53;;
78985;SDS011;68384;55.750;48.746;2023-08-08T01:34:58;5.25;;;3.95;;
78985;SDS011;68384;55.750;48.746;2023-08-08T01:36:06;4.70;;;3.63;;
78985;SDS011;68384;55.750;48.746;2023-08-08T01:37:17;6.68;;;3.40;;
78985;SDS011;68384;55.750;48.746;2023-08-08T01:38:23;5.57;;;3.60;;
78985;SDS011;68384;55.750;48.746;2023-08-08T01:39:35;3.85;;;3.35;;
78985;SDS011;68384;55.750;48.746;2023-08-08T01:40:42;5.68;;;3.78;;
78985;SDS011;68384;55.750;48.746;2023-08-08T01:41:47;8.85;;;4.20;;
78985;SDS011;68384;55.750;48.746;2023-08-08T01:42:52;5.30;;;3.72;;
78985;SDS011;68384;55.750;48.746;2023-08-08T01:43:57;4.53;;;3.58;;
78985;SDS011;68384;55.750;48.746;2023-08-08T01:46:05;4.97;;;3.42;;
78985;SDS011;68384;55.750;48.746;2023-08-08T01:47:09;4.22;;;3.83;;
78985;SDS011;68384;55.750;48.746;2023-08-08T01:48:13;4.80;;;3.70;;
78985;SDS011;68384;55.750;48.746;2023-08-08T01:49:16;5.22;;;3.88;;
78985;SDS011;68384;55.750;48.746;2023-08-08T01:50:19;6.97;;;3.92;;
78985;SDS011;68384;55.750;48.746;2023-08-08T01:52:27;10.32;;;4.28;;
78985;SDS011;68384;55.750;48.746;2023-08-08T01:53:30;5.47;;;3.60;;
78985;SDS011;68384;55.750;48.746;2023-08-08T01:54:36;6.43;;;4.22;;
78985;SDS011;68384;55.750;48.746;2023-08-08T01:55:39;8.07;;;3.97;;
78985;SDS011;68384;55.750;48.746;2023-08-08T01:56:42;8.88;;;4.10;;
78985;SDS011;68384;55.750;48.746;2023-08-08T01:57:45;8.77;;;4.32;;
78985;SDS011;68384;55.750;48.746;2023-08-08T01:58:49;9.18;;;4.57;;
78985;SDS011;68384;55.750;48.746;2023-08-08T01:59:52;6.28;;;4.18;;
78985;SDS011;68384;55.750;48.746;2023-08-08T02:00:56;8.10;;;4.03;;
78985;SDS011;68384;55.750;48.746;2023-08-08T02:01:59;6.07;;;4.55;;
78985;SDS011;68384;55.750;48.746;2023-08-08T02:03:03;6.78;;;4.10;;
78985;SDS011;68384;55.750;48.746;2023-08-08T02:04:06;6.85;;;4.13;;
78985;SDS011;68384;55.750;48.746;2023-08-08T02:05:11;6.10;;;4.38;;
78985;SDS011;68384;55.750;48.746;2023-08-08T02:06:14;6.30;;;4.32;;
78985;SDS011;68384;55.750;48.746;2023-08-08T02:07:18;6.30;;;4.57;;
78985;SDS011;68384;55.750;48.746;2023-08-08T02:08:21;9.15;;;4.20;;
78985;SDS011;68384;55.750;48.746;2023-08-08T02:09:25;9.75;;;5.43;;
78985;SDS011;68384;55.750;48.746;2023-08-08T02:10:29;10.07;;;4.75;;
78985;SDS011;68384;55.750;48.746;2023-08-08T02:11:33;6.93;;;4.95;;
78985;SDS011;68384;55.750;48.746;2023-08-08T02:12:36;5.43;;;4.63;;
78985;SDS011;68384;55.750;48.746;2023-08-08T02:13:39;6.80;;;4.95;;
78985;SDS011;68384;55.750;48.746;2023-08-08T02:15:46;11.77;;;4.90;;
78985;SDS011;68384;55.750;48.746;2023-08-08T02:16:49;8.48;;;4.85;;
78985;SDS011;68384;55.750;48.746;2023-08-08T02:17:53;9.63;;;5.47;;
78985;SDS011;68384;55.750;48.746;2023-08-08T02:19:17;8.02;;;5.65;;
78985;SDS011;68384;55.750;48.746;2023-08-08T02:20:21;7.97;;;4.90;;
78985;SDS011;68384;55.750;48.746;2023-08-08T02:21:25;7.72;;;5.57;;
78985;SDS011;68384;55.750;48.746;2023-08-08T02:22:29;11.90;;;5.45;;
78985;SDS011;68384;55.750;48.746;2023-08-08T02:23:32;11.32;;;5.63;;
78985;SDS011;68384;55.750;48.746;2023-08-08T02:24:36;9.38;;;5.70;;
78985;SDS011;68384;55.750;48.746;2023-08-08T02:25:40;7.40;;;5.25;;
78985;SDS011;68384;55.750;48.746;2023-08-08T02:26:44;9.63;;;5.53;;
78985;SDS011;68384;55.750;48.746;2023-08-08T02:27:48;10.50;;;6.20;;
78985;SDS011;68384;55.750;48.746;2023-08-08T02:28:52;10.98;;;5.78;;
78985;SDS011;68384;55.750;48.746;2023-08-08T02:29:56;9.18;;;5.97;;
78985;SDS011;68384;55.750;48.746;2023-08-08T02:31:00;6.47;;;5.45;;
78985;SDS011;68384;55.750;48.746;2023-08-08T02:32:03;7.57;;;5.63;;
78985;SDS011;68384;55.750;48.746;2023-08-08T02:33:08;10.98;;;5.03;;
78985;SDS011;68384;55.750;48.746;2023-08-08T02:34:11;9.90;;;6.25;;
78985;SDS011;68384;55.750;48.746;2023-08-08T02:35:15;10.85;;;5.00;;
78985;SDS011;68384;55.750;48.746;2023-08-08T02:36:18;10.05;;;5.65;;
78985;SDS011;68384;55.750;48.746;2023-08-08T02:37:22;8.40;;;5.53;;
78985;SDS011;68384;55.750;48.746;2023-08-08T02:38:25;10.38;;;5.90;;
78985;SDS011;68384;55.750;48.746;2023-08-08T02:39:29;10.00;;;5.05;;
78985;SDS011;68384;55.750;48.746;2023-08-08T02:40:32;7.68;;;5.20;;
78985;SDS011;68384;55.750;48.746;2023-08-08T02:41:37;9.80;;;4.95;;
78985;SDS011;68384;55.750;48.746;2023-08-08T02:42:40;7.25;;;5.45;;
78985;SDS011;68384;55.750;48.746;2023-08-08T02:43:44;9.85;;;5.70;;
78985;SDS011;68384;55.750;48.746;2023-08-08T02:44:47;6.15;;;4.68;;
78985;SDS011;68384;55.750;48.746;2023-08-08T02:45:51;8.40;;;4.97;;
78985;SDS011;68384;55.750;48.746;2023-08-08T02:46:54;9.18;;;5.15;;
78985;SDS011;68384;55.750;48.746;2023-08-08T02:47:58;10.02;;;5.57;;
78985;SDS011;68384;55.750;48.746;2023-08-08T02:49:01;8.85;;;5.25;;
78985;SDS011;68384;55.750;48.746;2023-08-08T02:50:06;7.53;;;5.07;;
78985;SDS011;68384;55.750;48.746;2023-08-08T02:51:09;7.35;;;5.00;;
78985;SDS011;68384;55.750;48.746;2023-08-08T02:52:13;6.30;;;4.78;;
78985;SDS011;68384;55.750;48.746;2023-08-08T02:53:16;10.57;;;4.85;;
78985;SDS011;68384;55.750;48.746;2023-08-08T02:54:22;8.10;;;4.40;;
78985;SDS011;68384;55.750;48.746;2023-08-08T02:55:24;6.68;;;4.30;;
78985;SDS011;68384;55.750;48.746;2023-08-08T02:56:29;6.57;;;4.97;;
78985;SDS011;68384;55.750;48.746;2023-08-08T02:57:33;7.38;;;4.35;;
78985;SDS011;68384;55.750;48.746;2023-08-08T02:58:37;6.70;;;4.40;;
78985;SDS011;68384;55.750;48.746;2023-08-08T02:59:39;7.72;;;4.47;;
78985;SDS011;68384;55.750;48.746;2023-08-08T03:00:43;6.97;;;4.60;;
78985;SDS011;68384;55.750;48.746;2023-08-08T03:01:48;5.88;;;4.47;;
78985;SDS011;68384;55.750;48.746;2023-08-08T03:02:53;6.70;;;4.53;;
78985;SDS011;68384;55.750;48.746;2023-08-08T03:03:55;8.85;;;4.75;;
78985;SDS011;68384;55.750;48.746;2023-08-08T03:05:01;10.80;;;4.78;;
78985;SDS011;68384;55.750;48.746;2023-08-08T03:06:03;5.68;;;4.50;;
78985;SDS011;68384;55.750;48.746;2023-08-08T03:07:08;4.97;;;3.78;;
78985;SDS011;68384;55.750;48.746;2023-08-08T03:08:12;7.28;;;4.57;;
78985;SDS011;68384;55.750;48.746;2023-08-08T03:09:16;7.80;;;4.80;;
78985;SDS011;68384;55.750;48.746;2023-08-08T03:10:19;5.55;;;4.40;;
78985;SDS011;68384;55.750;48.746;2023-08-08T03:11:22;8.02;;;4.55;;
78985;SDS011;68384;55.750;48.746;2023-08-08T03:12:25;5.90;;;4.40;;
78985;SDS011;68384;55.750;48.746;2023-08-08T03:13:31;6.38;;;4.45;;
78985;SDS011;68384;55.750;48.746;2023-08-08T03:14:34;9.20;;;4.60;;
78985;SDS011;68384;55.750;48.746;2023-08-08T03:15:38;4.95;;;4.45;;
78985;SDS011;68384;55.750;48.746;2023-08-08T03:16:41;7.70;;;4.57;;
78985;SDS011;68384;55.750;48.746;2023-08-08T03:17:46;8.55;;;4.30;;
78985;SDS011;68384;55.750;48.746;2023-08-08T03:18:49;5.65;;;4.22;;
78985;SDS011;68384;55.750;48.746;2023-08-08T03:19:53;6.97;;;4.30;;
78985;SDS011;68384;55.750;48.746;2023-08-08T03:22:04;6.72;;;4.20;;
78985;SDS011;68384;55.750;48.746;2023-08-08T03:23:10;8.07;;;4.03;;
78985;SDS011;68384;55.750;48.746;2023-08-08T03:24:14;4.97;;;4.03;;
78985;SDS011;68384;55.750;48.746;2023-08-08T03:25:18;4.50;;;3.85;;
78985;SDS011;68384;55.750;48.746;2023-08-08T03:26:22;6.93;;;4.43;;
78985;SDS011;68384;55.750;48.746;2023-08-08T03:27:25;5.05;;;4.35;;
78985;SDS011;68384;55.750;48.746;2023-08-08T03:28:28;7.57;;;4.38;;
78985;SDS011;68384;55.750;48.746;2023-08-08T03:29:33;6.97;;;4.30;;
78985;SDS011;68384;55.750;48.746;2023-08-08T03:30:37;7.72;;;4.20;;
78985;SDS011;68384;55.750;48.746;2023-08-08T03:31:43;5.50;;;4.10;;
78985;SDS011;68384;55.750;48.746;2023-08-08T03:32:47;6.25;;;4.00;;
78985;SDS011;68384;55.750;48.746;2023-08-08T03:34:54;7.43;;;3.83;;
78985;SDS011;68384;55.750;48.746;2023-08-08T03:35:56;5.72;;;3.85;;
78985;SDS011;68384;55.750;48.746;2023-08-08T03:37:00;4.65;;;3.70;;
78985;SDS011;68384;55.750;48.746;2023-08-08T03:38:04;10.85;;;4.20;;
78985;SDS011;68384;55.750;48.746;2023-08-08T03:39:07;6.63;;;3.92;;
78985;SDS011;68384;55.750;48.746;2023-08-08T03:40:11;9.60;;;4.15;;
78985;SDS011;68384;55.750;48.746;2023-08-08T03:41:15;6.55;;;3.90;;
78985;SDS011;68384;55.750;48.746;2023-08-08T03:42:18;4.90;;;4.05;;
78985;SDS011;68384;55.750;48.746;2023-08-08T03:43:22;5.75;;;3.63;;
78985;SDS011;68384;55.750;48.746;2023-08-08T03:44:27;4.45;;;4.05;;
78985;SDS011;68384;55.750;48.746;2023-08-08T03:45:30;8.00;;;4.40;;
78985;SDS011;68384;55.750;48.746;2023-08-08T03:46:33;5.68;;;3.78;;
78985;SDS011;68384;55.750;48.746;2023-08-08T03:47:37;6.43;;;4.38;;
78985;SDS011;68384;55.750;48.746;2023-08-08T03:48:40;6.45;;;4.38;;
78985;SDS011;68384;55.750;48.746;2023-08-08T03:49:44;4.82;;;3.72;;
78985;SDS011;68384;55.750;48.746;2023-08-08T03:50:47;5.63;;;4.10;;
78985;SDS011;68384;55.750;48.746;2023-08-08T03:51:51;4.35;;;3.95;;
78985;SDS011;68384;55.750;48.746;2023-08-08T03:52:54;8.88;;;4.82;;
78985;SDS011;68384;55.750;48.746;2023-08-08T03:53:58;5.28;;;3.88;;
78985;SDS011;68384;55.750;48.746;2023-08-08T03:55:00;6.80;;;4.25;;
78985;SDS011;68384;55.750;48.746;2023-08-08T03:56:05;5.30;;;4.25;;
78985;SDS011;68384;55.750;48.746;2023-08-08T03:57:10;7.90;;;4.28;;
78985;SDS011;68384;55.750;48.746;2023-08-08T03:58:14;7.72;;;4.70;;
78985;SDS011;68384;55.750;48.746;2023-08-08T03:59:17;8.60;;;3.80;;
78985;SDS011;68384;55.750;48.746;2023-08-08T04:00:23;7.00;;;4.38;;
78985;SDS011;68384;55.750;48.746;2023-08-08T04:01:25;5.95;;;4.35;;
78985;SDS011;68384;55.750;48.746;2023-08-08T04:02:30;6.70;;;4.18;;
78985;SDS011;68384;55.750;48.746;2023-08-08T04:03:33;7.47;;;4.35;;
78985;SDS011;68384;55.750;48.746;2023-08-08T04:04:37;6.13;;;4.70;;
78985;SDS011;68384;55.750;48.746;2023-08-08T04:05:40;6.88;;;4.53;;
78985;SDS011;68384;55.750;48.746;2023-08-08T04:06:49;10.45;;;4.60;;
78985;SDS011;68384;55.750;48.746;2023-08-08T04:07:51;8.60;;;5.30;;
78985;SDS011;68384;55.750;48.746;2023-08-08T04:08:55;7.32;;;4.50;;
78985;SDS011;68384;55.750;48.746;2023-08-08T04:09:58;9.52;;;4.80;;
78985;SDS011;68384;55.750;48.746;2023-08-08T04:11:05;8.18;;;4.50;;
78985;SDS011;68384;55.750;48.746;2023-08-08T04:12:08;8.98;;;4.57;;
78985;SDS011;68384;55.750;48.746;2023-08-08T04:13:12;7.53;;;4.60;;
78985;SDS011;68384;55.750;48.746;2023-08-08T04:14:16;8.40;;;4.55;;
78985;SDS011;68384;55.750;48.746;2023-08-08T04:15:20;9.15;;;5.00;;
78985;SDS011;68384;55.750;48.746;2023-08-08T04:16:24;7.50;;;4.82;;
78985;SDS011;68384;55.750;48.746;2023-08-08T04:17:28;8.60;;;4.72;;
78985;SDS011;68384;55.750;48.746;2023-08-08T04:18:31;7.07;;;4.63;;
78985;SDS011;68384;55.750;48.746;2023-08-08T04:19:35;8.50;;;4.60;;
78985;SDS011;68384;55.750;48.746;2023-08-08T04:20:38;7.72;;;4.85;;
78985;SDS011;68384;55.750;48.746;2023-08-08T04:21:42;6.28;;;4.43;;
78985;SDS011;68384;55.750;48.746;2023-08-08T04:22:45;6.93;;;5.03;;
78985;SDS011;68384;55.750;48.746;2023-08-08T04:23:48;6.15;;;4.47;;
78985;SDS011;68384;55.750;48.746;2023-08-08T04:24:51;7.43;;;4.45;;
78985;SDS011;68384;55.750;48.746;2023-08-08T04:25:55;7.40;;;4.40;;
78985;SDS011;68384;55.750;48.746;2023-08-08T04:26:58;7.78;;;4.93;;
78985;SDS011;68384;55.750;48.746;2023-08-08T04:28:02;7.32;;;5.13;;
78985;SDS011;68384;55.750;48.746;2023-08-08T04:29:05;6.70;;;5.00;;
78985;SDS011;68384;55.750;48.746;2023-08-08T04:30:09;7.80;;;5.03;;
78985;SDS011;68384;55.750;48.746;2023-08-08T04:31:13;9.65;;;5.05;;
78985;SDS011;68384;55.750;48.746;2023-08-08T04:32:18;6.95;;;4.75;;
78985;SDS011;68384;55.750;48.746;2023-08-08T04:33:21;7.75;;;4.97;;
78985;SDS011;68384;55.750;48.746;2023-08-08T04:34:25;5.93;;;4.53;;
78985;SDS011;68384;55.750;48.746;2023-08-08T04:35:28;7.35;;;5.00;;
78985;SDS011;68384;55.750;48.746;2023-08-08T04:36:31;9.60;;;4.75;;
78985;SDS011;68384;55.750;48.746;2023-08-08T04:37:35;6.75;;;4.97;;
78985;SDS011;68384;55.750;48.746;2023-08-08T04:38:39;8.13;;;4.32;;
78985;SDS011;68384;55.750;48.746;2023-08-08T04:39:41;6.97;;;4.97;;
78985;SDS011;68384;55.750;48.746;2023-08-08T04:40:45;8.05;;;4.57;;
78985;SDS011;68384;55.750;48.746;2023-08-08T04:41:48;10.63;;;5.43;;
78985;SDS011;68384;55.750;48.746;2023-08-08T04:42:52;7.53;;;4.75;;
78985;SDS011;68384;55.750;48.746;2023-08-08T04:43:55;8.23;;;5.57;;
78985;SDS011;68384;55.750;48.746;2023-08-08T04:44:58;6.38;;;4.88;;
78985;SDS011;68384;55.750;48.746;2023-08-08T04:46:01;8.25;;;5.07;;
78985;SDS011;68384;55.750;48.746;2023-08-08T04:47:05;8.38;;;5.35;;
78985;SDS011;68384;55.750;48.746;2023-08-08T04:48:10;8.57;;;5.32;;
78985;SDS011;68384;55.750;48.746;2023-08-08T04:49:13;9.05;;;5.30;;
78985;SDS011;68384;55.750;48.746;2023-08-08T04:50:16;9.10;;;5.78;;
78985;SDS011;68384;55.750;48.746;2023-08-08T04:51:20;9.07;;;5.00;;
78985;SDS011;68384;55.750;48.746;2023-08-08T04:52:23;8.20;;;5.53;;
78985;SDS011;68384;55.750;48.746;2023-08-08T04:53:27;8.75;;;5.13;;
78985;SDS011;68384;55.750;48.746;2023-08-08T04:54:30;8.48;;;5.85;;
78985;SDS011;68384;55.750;48.746;2023-08-08T04:55:33;8.00;;;5.63;;
78985;SDS011;68384;55.750;48.746;2023-08-08T04:56:36;8.45;;;5.15;;
78985;SDS011;68384;55.750;48.746;2023-08-08T04:57:40;7.05;;;5.38;;
78985;SDS011;68384;55.750;48.746;2023-08-08T04:58:43;9.98;;;5.88;;
78985;SDS011;68384;55.750;48.746;2023-08-08T04:59:48;10.70;;;6.03;;
78985;SDS011;68384;55.750;48.746;2023-08-08T05:00:51;8.55;;;6.03;;
78985;SDS011;68384;55.750;48.746;2023-08-08T05:01:55;9.07;;;5.93;;
78985;SDS011;68384;55.750;48.746;2023-08-08T05:02:57;8.48;;;5.40;;
78985;SDS011;68384;55.750;48.746;2023-08-08T05:04:02;10.73;;;5.75;;
78985;SDS011;68384;55.750;48.746;2023-08-08T05:05:07;11.05;;;6.20;;
78985;SDS011;68384;55.750;48.746;2023-08-08T05:06:10;11.52;;;5.82;;
78985;SDS011;68384;55.750;48.746;2023-08-08T05:07:15;10.27;;;6.75;;
78985;SDS011;68384;55.750;48.746;2023-08-08T05:08:17;16.92;;;9.30;;
78985;SDS011;68384;55.750;48.746;2023-08-08T05:09:21;11.55;;;8.25;;
78985;SDS011;68384;55.750;48.746;2023-08-08T05:10:28;17.98;;;8.80;;
78985;SDS011;68384;55.750;48.746;2023-08-08T05:11:33;12.70;;;7.45;;
78985;SDS011;68384;55.750;48.746;2023-08-08T05:12:36;8.82;;;6.00;;
78985;SDS011;68384;55.750;48.746;2023-08-08T05:13:40;9.35;;;6.80;;
78985;SDS011;68384;55.750;48.746;2023-08-08T05:14:44;16.17;;;7.35;;
78985;SDS011;68384;55.750;48.746;2023-08-08T05:15:48;12.88;;;7.60;;
78985;SDS011;68384;55.750;48.746;2023-08-08T05:16:51;18.25;;;11.50;;
78985;SDS011;68384;55.750;48.746;2023-08-08T05:17:55;28.25;;;17.17;;
78985;SDS011;68384;55.750;48.746;2023-08-08T05:18:59;14.35;;;6.78;;
78985;SDS011;68384;55.750;48.746;2023-08-08T05:20:05;10.95;;;6.57;;
78985;SDS011;68384;55.750;48.746;2023-08-08T05:21:10;13.15;;;6.07;;
78985;SDS011;68384;55.750;48.746;2023-08-08T05:22:13;16.73;;;9.05;;
78985;SDS011;68384;55.750;48.746;2023-08-08T05:23:16;22.23;;;8.90;;
78985;SDS011;68384;55.750;48.746;2023-08-08T05:24:21;9.23;;;6.10;;
78985;SDS011;68384;55.750;48.746;2023-08-08T05:25:23;12.70;;;7.53;;
78985;SDS011;68384;55.750;48.746;2023-08-08T05:26:28;14.55;;;7.15;;
78985;SDS011;68384;55.750;48.746;2023-08-08T05:27:30;9.45;;;5.78;;
78985;SDS011;68384;55.750;48.746;2023-08-08T05:28:33;9.88;;;6.60;;
78985;SDS011;68384;55.750;48.746;2023-08-08T05:29:37;9.85;;;5.82;;
78985;SDS011;68384;55.750;48.746;2023-08-08T05:30:41;11.75;;;6.03;;
78985;SDS011;68384;55.750;48.746;2023-08-08T05:31:45;19.40;;;10.95;;
78985;SDS011;68384;55.750;48.746;2023-08-08T05:32:49;11.52;;;6.28;;
78985;SDS011;68384;55.750;48.746;2023-08-08T05:33:53;9.95;;;6.72;;
78985;SDS011;68384;55.750;48.746;2023-08-08T05:34:56;10.05;;;5.35;;
78985;SDS011;68384;55.750;48.746;2023-08-08T05:36:01;12.05;;;5.88;;
78985;SDS011;68384;55.750;48.746;2023-08-08T05:37:04;17.40;;;5.50;;
78985;SDS011;68384;55.750;48.746;2023-08-08T05:38:18;6.70;;;5.25;;
78985;SDS011;68384;55.750;48.746;2023-08-08T05:39:21;7.72;;;5.05;;
78985;SDS011;68384;55.750;48.746;2023-08-08T05:40:25;9.90;;;5.47;;
78985;SDS011;68384;55.750;48.746;2023-08-08T05:41:28;9.90;;;4.75;;
78985;SDS011;68384;55.750;48.746;2023-08-08T05:42:32;6.93;;;5.10;;
78985;SDS011;68384;55.750;48.746;2023-08-08T05:43:35;11.57;;;5.30;;
78985;SDS011;68384;55.750;48.746;2023-08-08T05:44:39;10.32;;;5.22;;
78985;SDS011;68384;55.750;48.746;2023-08-08T05:45:44;10.18;;;4.68;;
78985;SDS011;68384;55.750;48.746;2023-08-08T05:46:48;8.65;;;5.40;;
78985;SDS011;68384;55.750;48.746;2023-08-08T05:47:51;7.30;;;5.10;;
78985;SDS011;68384;55.750;48.746;2023-08-08T05:48:55;9.57;;;4.80;;
78985;SDS011;68384;55.750;48.746;2023-08-08T05:49:58;7.07;;;4.15;;
78985;SDS011;68384;55.750;48.746;2023-08-08T05:51:03;7.72;;;5.05;;
78985;SDS011;68384;55.750;48.746;2023-08-08T05:52:07;9.60;;;4.43;;
78985;SDS011;68384;55.750;48.746;2023-08-08T05:53:12;6.53;;;4.57;;
78985;SDS011;68384;55.750;48.746;2023-08-08T05:54:14;6.15;;;4.05;;
78985;SDS011;68384;55.750;48.746;2023-08-08T05:55:18;6.97;;;4.32;;
78985;SDS011;68384;55.750;48.746;2023-08-08T05:56:21;9.88;;;4.35;;
78985;SDS011;68384;55.750;48.746;2023-08-08T05:57:25;8.85;;;4.03;;
78985;SDS011;68384;55.750;48.746;2023-08-08T05:58:28;7.72;;;4.35;;
78985;SDS011;68384;55.750;48.746;2023-08-08T05:59:32;10.05;;;4.25;;
78985;SDS011;68384;55.750;48.746;2023-08-08T06:00:35;6.80;;;4.45;;
78985;SDS011;68384;55.750;48.746;2023-08-08T06:01:39;4.45;;;3.88;;
78985;SDS011;68384;55.750;48.746;2023-08-08T06:02:43;13.50;;;4.82;;
78985;SDS011;68384;55.750;48.746;2023-08-08T06:03:46;6.90;;;4.10;;
78985;SDS011;68384;55.750;48.746;2023-08-08T06:04:50;10.15;;;3.75;;
78985;SDS011;68384;55.750;48.746;2023-08-08T06:05:53;9.18;;;4.10;;
78985;SDS011;68384;55.750;48.746;2023-08-08T06:06:58;7.60;;;4.10;;
78985;SDS011;68384;55.750;48.746;2023-08-08T06:08:02;7.55;;;3.65;;
78985;SDS011;68384;55.750;48.746;2023-08-08T06:09:09;8.65;;;5.63;;
78985;SDS011;68384;55.750;48.746;2023-08-08T06:10:13;10.15;;;5.05;;
78985;SDS011;68384;55.750;48.746;2023-08-08T06:11:16;6.30;;;3.45;;
78985;SDS011;68384;55.750;48.746;2023-08-08T06:12:19;10.77;;;4.43;;
78985;SDS011;68384;55.750;48.746;2023-08-08T06:13:23;8.02;;;4.15;;
78985;SDS011;68384;55.750;48.746;2023-08-08T06:14:27;8.38;;;4.57;;
78985;SDS011;68384;55.750;48.746;2023-08-08T06:15:30;9.63;;;3.88;;
78985;SDS011;68384;55.750;48.746;2023-08-08T06:16:33;7.95;;;4.00;;
78985;SDS011;68384;55.750;48.746;2023-08-08T06:17:36;11.15;;;3.38;;
78985;SDS011;68384;55.750;48.746;2023-08-08T06:18:41;11.68;;;4.65;;
78985;SDS011;68384;55.750;48.746;2023-08-08T06:19:44;7.82;;;4.00;;
78985;SDS011;68384;55.750;48.746;2023-08-08T06:20:48;7.80;;;4.50;;
78985;SDS011;68384;55.750;48.746;2023-08-08T06:21:50;9.40;;;4.35;;
78985;SDS011;68384;55.750;48.746;2023-08-08T06:22:56;8.43;;;3.90;;
78985;SDS011;68384;55.750;48.746;2023-08-08T06:23:59;7.90;;;3.70;;
78985;SDS011;68384;55.750;48.746;2023-08-08T06:25:03;7.22;;;3.72;;